sensor_id;sensor_type;location;lat;lon;timestamp;P1;durP1;ratioP1;P2;durP2;ratioP2
56519;SDS011;42420;53.586;10.052;2023-04-12T00:00:10;11.30;;;3.97;;
56519;SDS011;42420;53.586;10.052;2023-04-12T00:23:42;8.60;;;3.28;;
56519;SDS011;42420;53.586;10.052;2023-04-12T00:29:34;6.97;;;3.13;;
56519;SDS011;42420;53.586;10.052;2023-04-12T00:59:13;6.07;;;2.78;;
56519;SDS011;42420;53.586;10.052;2023-04-12T01:05:10;7.47;;;3.10;;
56519;SDS011;42420;53.586;10.052;2023-04-12T01:17:16;7.18;;;2.90;;
56519;SDS011;42420;53.586;10.052;2023-04-12T01:47:11;6.30;;;2.78;;
56519;SDS011;42420;53.586;10.052;2023-04-12T02:11:59;5.72;;;1.98;;
56519;SDS011;42420;53.586;10.052;2023-04-12T02:23:16;8.05;;;2.53;;
56519;SDS011;42420;53.586;10.052;2023-04-12T02:34:52;9.38;;;2.13;;
56519;SDS011;42420;53.586;10.052;2023-04-12T02:41:36;6.47;;;2.25;;
56519;SDS011;42420;53.586;10.052;2023-04-12T02:59:38;7.30;;;2.10;;
56519;SDS011;42420;53.586;10.052;2023-04-12T03:54:15;8.20;;;1.58;;
56519;SDS011;42420;53.586;10.052;2023-04-12T03:59:11;5.80;;;1.63;;
56519;SDS011;42420;53.586;10.052;2023-04-12T04:04:09;7.07;;;1.40;;
56519;SDS011;42420;53.586;10.052;2023-04-12T04:09:06;6.57;;;1.67;;
56519;SDS011;42420;53.586;10.052;2023-04-12T04:14:03;7.22;;;1.48;;
56519;SDS011;42420;53.586;10.052;2023-04-12T04:18:59;5.97;;;1.23;;
56519;SDS011;42420;53.586;10.052;2023-04-12T04:23:57;7.20;;;1.50;;
56519;SDS011;42420;53.586;10.052;2023-04-12T04:28:56;9.52;;;1.42;;
56519;SDS011;42420;53.586;10.052;2023-04-12T04:33:57;6.78;;;1.35;;
56519;SDS011;42420;53.586;10.052;2023-04-12T04:38:55;7.07;;;1.65;;
56519;SDS011;42420;53.586;10.052;2023-04-12T04:43:52;7.32;;;1.50;;
56519;SDS011;42420;53.586;10.052;2023-04-12T04:48:49;6.55;;;1.60;;
56519;SDS011;42420;53.586;10.052;2023-04-12T04:53:50;5.30;;;1.65;;
56519;SDS011;42420;53.586;10.052;2023-04-12T04:58:46;6.32;;;1.50;;
56519;SDS011;42420;53.586;10.052;2023-04-12T05:03:43;7.35;;;1.58;;
56519;SDS011;42420;53.586;10.052;2023-04-12T05:08:45;6.85;;;1.77;;
56519;SDS011;42420;53.586;10.052;2023-04-12T05:13:41;5.00;;;1.38;;
56519;SDS011;42420;53.586;10.052;2023-04-12T05:19:21;4.68;;;1.48;;
56519;SDS011;42420;53.586;10.052;2023-04-12T06:45:58;4.45;;;1.30;;
56519;SDS011;42420;53.586;10.052;2023-04-12T06:58:18;8.52;;;1.90;;
56519;SDS011;42420;53.586;10.052;2023-04-12T07:30:12;4.45;;;1.48;;
56519;SDS011;42420;53.586;10.052;2023-04-12T07:36:20;6.07;;;1.85;;
56519;SDS011;42420;53.586;10.052;2023-04-12T07:48:31;7.22;;;1.70;;
56519;SDS011;42420;53.586;10.052;2023-04-12T08:20:30;6.85;;;1.95;;
56519;SDS011;42420;53.586;10.052;2023-04-12T09:15:56;5.00;;;1.55;;
56519;SDS011;42420;53.586;10.052;2023-04-12T10:00:45;6.45;;;1.52;;
56519;SDS011;42420;53.586;10.052;2023-04-12T10:18:29;6.13;;;1.67;;
56519;SDS011;42420;53.586;10.052;2023-04-12T10:23:26;5.80;;;1.83;;
56519;SDS011;42420;53.586;10.052;2023-04-12T11:48:28;10.20;;;3.38;;
56519;SDS011;42420;53.586;10.052;2023-04-12T12:25:16;7.32;;;2.55;;
56519;SDS011;42420;53.586;10.052;2023-04-12T12:31:24;8.00;;;2.72;;
56519;SDS011;42420;53.586;10.052;2023-04-12T12:55:03;7.65;;;2.45;;
56519;SDS011;42420;53.586;10.052;2023-04-12T13:04:56;7.68;;;2.60;;
56519;SDS011;42420;53.586;10.052;2023-04-12T13:09:54;10.00;;;3.00;;
56519;SDS011;42420;53.586;10.052;2023-04-12T13:14:51;7.68;;;2.45;;
56519;SDS011;42420;53.586;10.052;2023-04-12T13:20:08;5.95;;;2.35;;
56519;SDS011;42420;53.586;10.052;2023-04-12T13:25:05;6.78;;;3.00;;
56519;SDS011;42420;53.586;10.052;2023-04-12T13:30:03;5.20;;;2.40;;
56519;SDS011;42420;53.586;10.052;2023-04-12T13:35:00;7.65;;;2.20;;
56519;SDS011;42420;53.586;10.052;2023-04-12T13:39:57;7.68;;;2.03;;
56519;SDS011;42420;53.586;10.052;2023-04-12T13:44:54;6.95;;;2.13;;
56519;SDS011;42420;53.586;10.052;2023-04-12T13:49:51;5.93;;;1.70;;
56519;SDS011;42420;53.586;10.052;2023-04-12T13:54:49;6.55;;;2.65;;
56519;SDS011;42420;53.586;10.052;2023-04-12T13:59:46;7.93;;;1.90;;
56519;SDS011;42420;53.586;10.052;2023-04-12T14:04:50;4.85;;;1.70;;
56519;SDS011;42420;53.586;10.052;2023-04-12T14:14:46;5.68;;;2.00;;
56519;SDS011;42420;53.586;10.052;2023-04-12T14:19:43;6.57;;;1.83;;
56519;SDS011;42420;53.586;10.052;2023-04-12T14:24:39;7.35;;;2.20;;
56519;SDS011;42420;53.586;10.052;2023-04-12T14:29:36;5.90;;;2.10;;
56519;SDS011;42420;53.586;10.052;2023-04-12T14:34:34;8.70;;;2.72;;
56519;SDS011;42420;53.586;10.052;2023-04-12T14:39:33;7.65;;;2.70;;
56519;SDS011;42420;53.586;10.052;2023-04-12T14:44:30;8.75;;;4.57;;
56519;SDS011;42420;53.586;10.052;2023-04-12T14:49:27;6.93;;;2.70;;
56519;SDS011;42420;53.586;10.052;2023-04-12T14:54:28;6.63;;;2.70;;
56519;SDS011;42420;53.586;10.052;2023-04-12T14:59:24;10.38;;;3.28;;
56519;SDS011;42420;53.586;10.052;2023-04-12T15:04:22;6.70;;;2.55;;
56519;SDS011;42420;53.586;10.052;2023-04-12T15:09:20;7.47;;;2.70;;
56519;SDS011;42420;53.586;10.052;2023-04-12T15:14:16;5.80;;;2.25;;
56519;SDS011;42420;53.586;10.052;2023-04-12T15:19:15;9.07;;;2.60;;
56519;SDS011;42420;53.586;10.052;2023-04-12T15:24:18;6.03;;;2.17;;
56519;SDS011;42420;53.586;10.052;2023-04-12T15:29:15;8.02;;;2.03;;
56519;SDS011;42420;53.586;10.052;2023-04-12T15:34:11;5.30;;;2.03;;
56519;SDS011;42420;53.586;10.052;2023-04-12T15:39:11;6.82;;;2.35;;
56519;SDS011;42420;53.586;10.052;2023-04-12T15:44:09;4.78;;;1.92;;
56519;SDS011;42420;53.586;10.052;2023-04-12T15:49:09;5.22;;;1.65;;
56519;SDS011;42420;53.586;10.052;2023-04-12T15:59:02;6.60;;;2.85;;
56519;SDS011;42420;53.586;10.052;2023-04-12T16:03:59;5.78;;;2.05;;
56519;SDS011;42420;53.586;10.052;2023-04-12T16:51:20;4.85;;;1.90;;
56519;SDS011;42420;53.586;10.052;2023-04-12T16:56:18;6.13;;;2.22;;
56519;SDS011;42420;53.586;10.052;2023-04-12T17:19:17;7.65;;;2.85;;
56519;SDS011;42420;53.586;10.052;2023-04-12T17:51:21;5.35;;;2.67;;
56519;SDS011;42420;53.586;10.052;2023-04-12T17:57:15;6.40;;;2.80;;
56519;SDS011;42420;53.586;10.052;2023-04-12T18:16:26;5.78;;;2.42;;
56519;SDS011;42420;53.586;10.052;2023-04-12T18:46:42;6.05;;;3.10;;
56519;SDS011;42420;53.586;10.052;2023-04-12T19:08:13;8.77;;;3.85;;
56519;SDS011;42420;53.586;10.052;2023-04-12T19:13:10;9.70;;;3.42;;
56519;SDS011;42420;53.586;10.052;2023-04-12T19:18:20;4.22;;;2.03;;
56519;SDS011;42420;53.586;10.052;2023-04-12T19:37:39;4.00;;;1.52;;
56519;SDS011;42420;53.586;10.052;2023-04-12T19:44:00;5.18;;;2.42;;
56519;SDS011;42420;53.586;10.052;2023-04-12T19:50:10;5.07;;;2.50;;
56519;SDS011;42420;53.586;10.052;2023-04-12T20:08:45;6.13;;;1.50;;
56519;SDS011;42420;53.586;10.052;2023-04-12T20:20:46;5.72;;;1.27;;
56519;SDS011;42420;53.586;10.052;2023-04-12T20:25:43;5.45;;;1.02;;
56519;SDS011;42420;53.586;10.052;2023-04-12T20:30:44;4.55;;;1.30;;
56519;SDS011;42420;53.586;10.052;2023-04-12T20:35:43;4.10;;;1.20;;
56519;SDS011;42420;53.586;10.052;2023-04-12T20:40:39;3.53;;;1.20;;
56519;SDS011;42420;53.586;10.052;2023-04-12T20:45:36;6.70;;;1.30;;
56519;SDS011;42420;53.586;10.052;2023-04-12T20:50:33;7.35;;;1.35;;
56519;SDS011;42420;53.586;10.052;2023-04-12T20:55:29;5.75;;;1.42;;
56519;SDS011;42420;53.586;10.052;2023-04-12T21:00:30;5.80;;;1.35;;
56519;SDS011;42420;53.586;10.052;2023-04-12T21:05:28;3.83;;;1.30;;
56519;SDS011;42420;53.586;10.052;2023-04-12T21:10:25;7.57;;;1.50;;
56519;SDS011;42420;53.586;10.052;2023-04-12T21:15:24;4.60;;;1.27;;
56519;SDS011;42420;53.586;10.052;2023-04-12T21:20:22;6.68;;;1.50;;
56519;SDS011;42420;53.586;10.052;2023-04-12T21:25:19;6.22;;;1.40;;
56519;SDS011;42420;53.586;10.052;2023-04-12T21:30:16;4.80;;;1.55;;
56519;SDS011;42420;53.586;10.052;2023-04-12T21:35:12;6.75;;;1.42;;
56519;SDS011;42420;53.586;10.052;2023-04-12T21:40:11;5.63;;;1.52;;
56519;SDS011;42420;53.586;10.052;2023-04-12T21:45:08;4.15;;;1.35;;
56519;SDS011;42420;53.586;10.052;2023-04-12T21:50:05;5.05;;;1.40;;
56519;SDS011;42420;53.586;10.052;2023-04-12T21:55:03;4.75;;;1.50;;
56519;SDS011;42420;53.586;10.052;2023-04-12T22:00:00;5.90;;;1.58;;
56519;SDS011;42420;53.586;10.052;2023-04-12T22:04:58;7.20;;;1.55;;
56519;SDS011;42420;53.586;10.052;2023-04-12T22:09:55;4.63;;;1.30;;
56519;SDS011;42420;53.586;10.052;2023-04-12T22:14:53;8.27;;;1.98;;
56519;SDS011;42420;53.586;10.052;2023-04-12T22:19:52;9.27;;;1.67;;
56519;SDS011;42420;53.586;10.052;2023-04-12T22:24:51;6.90;;;1.80;;
56519;SDS011;42420;53.586;10.052;2023-04-12T22:29:48;6.18;;;2.00;;
56519;SDS011;42420;53.586;10.052;2023-04-12T22:34:46;5.47;;;1.75;;
56519;SDS011;42420;53.586;10.052;2023-04-12T22:39:56;6.85;;;1.88;;
56519;SDS011;42420;53.586;10.052;2023-04-12T22:44:53;6.43;;;2.10;;
56519;SDS011;42420;53.586;10.052;2023-04-12T22:49:52;7.85;;;2.00;;
56519;SDS011;42420;53.586;10.052;2023-04-12T22:54:53;9.13;;;2.25;;
56519;SDS011;42420;53.586;10.052;2023-04-12T22:59:50;7.90;;;2.45;;
56519;SDS011;42420;53.586;10.052;2023-04-12T23:04:48;7.55;;;2.47;;
56519;SDS011;42420;53.586;10.052;2023-04-12T23:09:46;7.15;;;2.22;;
56519;SDS011;42420;53.586;10.052;2023-04-12T23:14:42;6.32;;;2.08;;
56519;SDS011;42420;53.586;10.052;2023-04-12T23:19:39;8.32;;;2.30;;
56519;SDS011;42420;53.586;10.052;2023-04-12T23:24:36;7.10;;;2.60;;
56519;SDS011;42420;53.586;10.052;2023-04-12T23:29:33;7.22;;;2.60;;
56519;SDS011;42420;53.586;10.052;2023-04-12T23:34:30;7.85;;;2.42;;
56519;SDS011;42420;53.586;10.052;2023-04-12T23:39:31;7.47;;;3.22;;
56519;SDS011;42420;53.586;10.052;2023-04-12T23:44:28;15.02;;;7.40;;
56519;SDS011;42420;53.586;10.052;2023-04-12T23:49:25;15.40;;;9.10;;
56519;SDS011;42420;53.586;10.052;2023-04-12T23:54:22;15.55;;;7.95;;
56519;SDS011;42420;53.586;10.052;2023-04-12T23:59:19;10.68;;;5.18;;
